PGV weather

Pitt Greenville Airport
Greenville, North Carolina, United States

Public forecast

Using degrees Fahrenheit for public forecast. Weather courtesy of forecast.io.

Current aviation weather report (METAR) for Pitt Greenville Airport

Retrieved 2020/07/07 02:35 UTC (6 minutes ago):

KPGV 070235Z AUTO 20004KT 10SM CLR 26/22 A3009 RMK AO2

Aviation forecast (TAF) for Pitt Greenville Airport

Forecast is more than 6 hours old.

Retrieved 2020/07/06 18:28 UTC (8 hours ago):

TAF KPGV 061726Z 0618/0718 18005KT P6SM VCTS SCT045CB FM062200 17007KT P6SM FEW040 SCT045 FM071000 00000KT 5SM BR BKN250 FM071200 VRB03KT P6SM BKN150 AMD LTD TO CLD VIS AND WIND